createdAt,value
2019-05-01T00:00:23.282Z,11.50
2019-05-01T00:02:56.444Z,11.50
2019-05-01T00:08:30.578Z,11.50
2019-05-01T00:10:59.515Z,11.50
2019-05-01T00:13:28.478Z,11.50
2019-05-01T00:15:57.797Z,11.50
2019-05-01T00:18:29.943Z,11.50
2019-05-01T00:20:59.107Z,11.50
2019-05-01T00:23:27.983Z,11.40
2019-05-01T00:25:58.914Z,11.40
2019-05-01T00:28:27.756Z,11.30
2019-05-01T00:30:56.687Z,11.30
2019-05-01T00:33:25.633Z,11.30
2019-05-01T00:35:54.500Z,11.30
2019-05-01T00:38:23.393Z,11.30
2019-05-01T00:40:52.303Z,11.30
2019-05-01T00:43:21.179Z,11.30
2019-05-01T00:45:49.997Z,11.40
2019-05-01T00:48:18.904Z,11.30
2019-05-01T00:50:47.780Z,11.30
2019-05-01T00:53:16.697Z,11.30
2019-05-01T00:55:50.310Z,11.30
2019-05-01T00:58:20.763Z,11.30
2019-05-01T01:00:56.999Z,11.30
2019-05-01T01:03:26.010Z,11.30
2019-05-01T01:05:56.507Z,11.30
2019-05-01T01:08:25.420Z,11.20
2019-05-01T01:10:55.755Z,11.20
2019-05-01T01:13:28.926Z,11.20
2019-05-01T01:15:57.836Z,11.20
2019-05-01T01:18:28.162Z,11.20
2019-05-01T01:20:58.524Z,11.20
2019-05-01T01:23:27.699Z,11.20
2019-05-01T01:25:58.084Z,11.30
2019-05-01T01:28:26.944Z,11.30
2019-05-01T01:30:56.873Z,11.30
2019-05-01T01:33:25.938Z,11.20
2019-05-01T01:35:55.188Z,11.20
2019-05-01T01:38:26.094Z,11.20
2019-05-01T01:40:54.620Z,11.20
2019-05-01T01:43:34.802Z,11.20
2019-05-01T01:46:22.214Z,11.20
2019-05-01T01:48:52.708Z,11.20
2019-05-01T01:51:22.977Z,11.20
2019-05-01T01:53:53.448Z,11.20
2019-05-01T01:56:25.179Z,11.20
2019-05-01T01:58:56.216Z,11.20
2019-05-01T02:01:43.379Z,11.20
2019-05-01T02:04:19.821Z,11.30
2019-05-01T02:06:50.449Z,11.30
2019-05-01T02:09:19.476Z,11.30
2019-05-01T02:11:49.131Z,11.30
2019-05-01T02:14:18.000Z,11.20
2019-05-01T02:16:46.893Z,11.20
2019-05-01T02:19:15.778Z,11.20
2019-05-01T02:21:44.629Z,11.30
2019-05-01T02:24:13.591Z,11.30
2019-05-01T02:26:51.017Z,11.30
2019-05-01T02:29:21.724Z,11.30
2019-05-01T02:31:53.913Z,11.20
2019-05-01T02:34:24.191Z,11.20
2019-05-01T02:36:55.694Z,11.20
2019-05-01T02:39:26.671Z,11.20
2019-05-01T02:41:58.413Z,11.10
2019-05-01T02:44:41.534Z,11.10
2019-05-01T02:47:13.176Z,11.10
2019-05-01T02:50:02.925Z,11.00
2019-05-01T02:52:35.056Z,11.00
2019-05-01T02:55:07.806Z,11.00
2019-05-01T02:57:39.430Z,11.00
2019-05-01T03:00:08.630Z,11.00
2019-05-01T03:02:39.651Z,11.00
2019-05-01T03:05:08.946Z,11.10
2019-05-01T03:07:39.595Z,11.10
2019-05-01T03:10:10.032Z,11.10
2019-05-01T03:12:41.979Z,11.10
2019-05-01T03:15:12.974Z,11.10
2019-05-01T03:17:51.100Z,11.00
2019-05-01T03:20:29.069Z,11.00
2019-05-01T03:23:17.018Z,11.00
2019-05-01T03:25:45.924Z,11.00
2019-05-01T03:28:18.119Z,11.00
2019-05-01T03:30:47.363Z,11.00
2019-05-01T03:33:16.625Z,11.00
2019-05-01T03:35:45.728Z,11.00
2019-05-01T03:38:14.686Z,11.00
2019-05-01T03:40:43.699Z,11.10
2019-05-01T03:43:13.148Z,11.10
2019-05-01T03:45:43.663Z,11.10
2019-05-01T03:48:12.880Z,11.00
2019-05-01T03:50:41.886Z,11.00
2019-05-01T03:53:10.830Z,11.00
2019-05-01T03:55:39.696Z,11.00
2019-05-01T03:58:08.818Z,11.00
2019-05-01T04:00:41.286Z,11.00
2019-05-01T04:03:21.958Z,11.00
2019-05-01T04:05:51.470Z,11.00
2019-05-01T04:08:20.420Z,11.00
2019-05-01T04:10:49.600Z,11.00
2019-05-01T04:13:18.845Z,10.90
2019-05-01T04:15:48.184Z,11.00
2019-05-01T04:18:17.127Z,11.00
2019-05-01T04:20:46.346Z,11.00
2019-05-01T04:23:15.857Z,11.00
2019-05-01T04:25:44.800Z,10.90
2019-05-01T04:28:24.847Z,10.90
2019-05-01T04:31:10.789Z,11.00
2019-05-01T04:33:41.310Z,10.90
2019-05-01T04:36:14.622Z,11.00
2019-05-01T04:38:43.992Z,10.90
2019-05-01T04:41:14.584Z,10.90
2019-05-01T04:43:43.445Z,10.90
2019-05-01T04:46:12.490Z,10.90
2019-05-01T04:48:44.929Z,10.90
2019-05-01T04:51:14.006Z,10.90
2019-05-01T04:53:43.031Z,11.00
2019-05-01T04:56:12.075Z,11.00
2019-05-01T04:58:40.981Z,11.00
2019-05-01T05:01:09.856Z,10.90
2019-05-01T05:03:39.033Z,10.90
2019-05-01T05:06:08.246Z,11.00
2019-05-01T05:08:37.415Z,11.00
2019-05-01T05:11:08.207Z,11.00
2019-05-01T05:13:38.644Z,11.00
2019-05-01T05:16:10.100Z,11.10
2019-05-01T05:18:39.033Z,11.10
2019-05-01T05:21:08.707Z,11.10
2019-05-01T05:23:37.796Z,11.10
2019-05-01T05:26:13.463Z,11.10
2019-05-01T05:28:40.109Z,11.20
2019-05-01T05:31:09.773Z,11.20
2019-05-01T05:33:39.692Z,11.20
2019-05-01T05:36:09.655Z,11.30
2019-05-01T05:38:46.466Z,11.30
2019-05-01T05:41:15.791Z,11.30
2019-05-01T05:43:44.857Z,11.30
2019-05-01T05:46:13.838Z,11.30
2019-05-01T05:48:42.728Z,11.40
2019-05-01T05:51:21.643Z,11.40
2019-05-01T05:53:55.103Z,11.30
2019-05-01T05:56:28.573Z,11.30
2019-05-01T05:59:08.233Z,11.30
2019-05-01T06:01:59.290Z,11.40
2019-05-01T06:04:46.813Z,11.40
2019-05-01T06:07:25.910Z,11.40
2019-05-01T06:10:00.954Z,11.40
2019-05-01T06:12:31.755Z,11.50
2019-05-01T06:15:06.365Z,11.50
2019-05-01T06:17:36.007Z,11.50
2019-05-01T06:20:08.858Z,11.50
2019-05-01T06:22:40.703Z,11.60
2019-05-01T06:25:22.613Z,11.60
2019-05-01T06:27:49.298Z,11.70
2019-05-01T06:30:42.138Z,11.70
2019-05-01T06:33:09.527Z,11.70
2019-05-01T06:35:39.529Z,11.70
2019-05-01T06:38:14.187Z,11.70
2019-05-01T06:40:52.921Z,11.80
2019-05-01T06:43:35.482Z,11.80
2019-05-01T06:46:12.043Z,11.90
2019-05-01T06:48:57.460Z,11.90
2019-05-01T06:51:34.414Z,11.90
2019-05-01T06:54:11.088Z,12.00
2019-05-01T06:56:37.998Z,12.00
2019-05-01T06:59:08.614Z,12.10
2019-05-01T07:01:39.331Z,12.20
2019-05-01T07:04:08.502Z,12.20
2019-05-01T07:06:37.926Z,12.30
2019-05-01T07:09:12.010Z,12.30
2019-05-01T07:11:42.436Z,12.40
2019-05-01T07:14:16.352Z,12.50
2019-05-01T07:16:42.484Z,12.60
2019-05-01T07:19:12.980Z,12.60
2019-05-01T07:21:41.970Z,12.60
2019-05-01T07:24:10.880Z,12.70
2019-05-01T07:26:43.808Z,12.80
2019-05-01T07:29:12.037Z,12.90
2019-05-01T07:31:41.089Z,12.90
2019-05-01T07:34:16.404Z,12.90
2019-05-01T07:36:40.435Z,12.90
2019-05-01T07:39:14.304Z,13.00
2019-05-01T07:41:40.574Z,12.90
2019-05-01T07:44:29.968Z,13.00
2019-05-01T07:47:17.626Z,13.00
2019-05-01T07:49:55.488Z,13.10
2019-05-01T07:52:25.461Z,13.20
2019-05-01T07:54:58.646Z,13.20
2019-05-01T07:57:28.121Z,13.20
2019-05-01T07:59:58.380Z,13.20
2019-05-01T08:02:30.880Z,13.30
2019-05-01T08:05:05.026Z,13.20
2019-05-01T08:07:32.382Z,13.30
2019-05-01T08:10:03.006Z,13.30
2019-05-01T08:12:31.877Z,13.40
2019-05-01T08:15:00.744Z,13.40
2019-05-01T08:17:31.229Z,13.40
2019-05-01T08:20:15.072Z,13.50
2019-05-01T08:22:41.173Z,13.50
2019-05-01T08:25:10.007Z,13.60
2019-05-01T08:27:43.565Z,13.60
2019-05-01T08:30:17.374Z,13.70
2019-05-01T08:32:46.359Z,13.70
2019-05-01T08:35:16.884Z,13.80
2019-05-01T08:37:45.756Z,13.80
2019-05-01T08:40:15.823Z,13.80
2019-05-01T08:42:47.718Z,13.90
2019-05-01T08:45:18.168Z,14.00
2019-05-01T08:47:48.647Z,14.00
2019-05-01T08:50:24.845Z,14.00
2019-05-01T08:52:51.140Z,14.00
2019-05-01T08:55:22.366Z,14.10
2019-05-01T08:57:51.942Z,14.20
2019-05-01T09:00:21.062Z,14.40
2019-05-01T09:02:50.043Z,14.50
2019-05-01T09:05:28.550Z,14.60
2019-05-01T09:07:51.233Z,14.80
2019-05-01T09:10:21.731Z,14.80
2019-05-01T09:12:53.409Z,14.80
2019-05-01T09:15:22.232Z,14.80
2019-05-01T09:17:51.286Z,14.90
2019-05-01T09:20:21.792Z,14.90
2019-05-01T09:22:50.647Z,15.00
2019-05-01T09:25:21.463Z,15.00
2019-05-01T09:27:54.428Z,15.10
2019-05-01T09:30:28.786Z,15.10
2019-05-01T09:32:57.779Z,15.20
2019-05-01T09:35:27.283Z,15.30
2019-05-01T09:37:56.244Z,15.60
2019-05-01T09:40:25.112Z,15.80
2019-05-01T09:42:54.832Z,16.00
2019-05-01T09:45:24.733Z,16.10
2019-05-01T09:47:53.584Z,16.20
2019-05-01T09:50:25.996Z,16.20
2019-05-01T09:53:06.919Z,16.20
2019-05-01T09:55:49.579Z,16.30
2019-05-01T09:58:18.501Z,16.20
2019-05-01T10:00:48.891Z,16.20
2019-05-01T10:03:18.115Z,16.10
2019-05-01T10:05:47.337Z,16.00
2019-05-01T10:08:16.292Z,16.00
2019-05-01T10:10:45.143Z,16.00
2019-05-01T10:13:17.645Z,16.00
2019-05-01T10:15:44.551Z,15.90
2019-05-01T10:18:13.439Z,15.80
2019-05-01T10:20:42.373Z,15.60
2019-05-01T10:23:13.223Z,15.40
2019-05-01T10:25:48.081Z,15.30
2019-05-01T10:28:33.545Z,15.10
2019-05-01T10:31:12.000Z,15.00
2019-05-01T10:33:48.590Z,14.90
2019-05-01T10:36:35.623Z,14.80
2019-05-01T10:39:07.024Z,14.60
2019-05-01T10:41:36.043Z,14.50
2019-05-01T10:44:05.037Z,14.50
2019-05-01T10:46:33.951Z,14.40
2019-05-01T10:49:02.858Z,14.40
2019-05-01T10:51:33.181Z,14.30
2019-05-01T10:54:02.048Z,14.20
2019-05-01T10:56:30.967Z,14.20
2019-05-01T10:58:59.839Z,14.10
2019-05-01T11:01:30.276Z,14.10
2019-05-01T11:03:59.188Z,14.20
2019-05-01T11:06:28.493Z,14.20
2019-05-01T11:08:57.326Z,14.30
2019-05-01T11:11:26.254Z,14.30
2019-05-01T11:13:58.466Z,14.40
2019-05-01T11:16:27.361Z,14.40
2019-05-01T11:18:56.255Z,14.50
2019-05-01T11:21:25.120Z,14.50
2019-05-01T11:23:55.022Z,14.50
2019-05-01T11:26:23.907Z,14.40
2019-05-01T11:28:52.828Z,14.40
2019-05-01T11:31:23.270Z,14.40
2019-05-01T11:33:59.747Z,14.50
2019-05-01T11:36:33.767Z,14.60
2019-05-01T11:39:20.412Z,14.60
2019-05-01T11:41:55.101Z,14.60
2019-05-01T11:44:24.020Z,14.60
2019-05-01T11:46:52.849Z,14.70
2019-05-01T11:49:21.722Z,14.70
2019-05-01T11:51:50.619Z,14.70
2019-05-01T11:54:19.541Z,14.70
2019-05-01T11:56:48.403Z,14.80
2019-05-01T11:59:17.321Z,14.80
2019-05-01T12:01:46.188Z,14.90
2019-05-01T12:04:15.043Z,15.00
2019-05-01T12:06:43.988Z,14.90
2019-05-01T12:09:12.829Z,15.00
2019-05-01T12:11:43.263Z,15.10
2019-05-01T12:14:12.170Z,15.20
2019-05-01T12:16:54.602Z,15.20
2019-05-01T12:19:34.328Z,15.30
2019-05-01T12:22:03.205Z,15.50
2019-05-01T12:24:32.086Z,15.70
2019-05-01T12:27:01.002Z,15.80
2019-05-01T12:29:29.866Z,15.80
2019-05-01T12:32:01.467Z,15.90
2019-05-01T12:34:30.404Z,16.10
2019-05-01T12:37:07.131Z,16.30
2019-05-01T12:39:38.045Z,16.40
2019-05-01T12:42:06.650Z,16.40
2019-05-01T12:44:35.511Z,16.50
2019-05-01T12:47:08.443Z,16.50
2019-05-01T12:49:37.397Z,16.50
2019-05-01T12:52:13.726Z,16.60
2019-05-01T12:54:44.132Z,16.50
2019-05-01T12:57:14.139Z,16.40
2019-05-01T12:59:43.057Z,16.20
2019-05-01T13:02:11.916Z,16.00
2019-05-01T13:04:40.871Z,15.80
2019-05-01T13:07:10.111Z,15.60
2019-05-01T13:09:39.076Z,15.40
2019-05-01T13:12:08.102Z,15.30
2019-05-01T13:14:36.956Z,15.30
2019-05-01T13:17:05.820Z,15.30
2019-05-01T13:19:34.689Z,15.30
2019-05-01T13:22:05.344Z,15.20
2019-05-01T13:24:35.677Z,15.20
2019-05-01T13:27:06.363Z,15.10
2019-05-01T13:29:36.774Z,14.90
2019-05-01T13:32:07.468Z,14.90
2019-05-01T13:34:36.387Z,14.90
2019-05-01T13:37:05.243Z,14.90
2019-05-01T13:39:34.118Z,14.90
2019-05-01T13:42:03.043Z,14.90
2019-05-01T13:44:31.905Z,14.90
2019-05-01T13:47:03.313Z,14.90
2019-05-01T13:49:32.276Z,14.80
2019-05-01T13:52:01.149Z,14.80
2019-05-01T13:54:30.011Z,14.80
2019-05-01T13:56:58.914Z,14.80
2019-05-01T13:59:27.789Z,14.80
2019-05-01T14:01:56.766Z,14.80
2019-05-01T14:04:27.145Z,14.80
2019-05-01T14:06:56.052Z,14.80
2019-05-01T14:09:26.578Z,14.90
2019-05-01T14:11:55.478Z,14.90
2019-05-01T14:14:24.339Z,14.90
2019-05-01T14:16:53.630Z,14.90
2019-05-01T14:19:22.470Z,15.00
2019-05-01T14:22:09.203Z,15.00
2019-05-01T14:24:39.702Z,15.10
2019-05-01T14:27:08.742Z,15.10
2019-05-01T14:29:37.682Z,15.00
2019-05-01T14:32:06.557Z,14.90
2019-05-01T14:34:35.428Z,14.90
2019-05-01T14:37:04.555Z,14.90
2019-05-01T14:39:33.411Z,15.00
2019-05-01T14:42:02.271Z,14.90
2019-05-01T14:44:36.867Z,14.80
2019-05-01T14:47:01.747Z,14.70
2019-05-01T14:49:30.633Z,14.70
2019-05-01T14:51:59.507Z,14.50
2019-05-01T14:54:28.563Z,14.40
2019-05-01T14:56:57.439Z,14.30
2019-05-01T14:59:26.303Z,14.10
2019-05-01T15:01:55.231Z,14.10
2019-05-01T15:04:24.101Z,14.00
2019-05-01T15:06:52.974Z,13.70
2019-05-01T15:09:21.857Z,13.60
2019-05-01T15:11:51.931Z,13.40
2019-05-01T15:14:22.393Z,13.30
2019-05-01T15:16:55.973Z,13.20
2019-05-01T15:19:26.412Z,13.00
2019-05-01T15:21:55.284Z,12.80
2019-05-01T15:24:26.262Z,12.70
2019-05-01T15:26:55.136Z,12.50
2019-05-01T15:29:23.967Z,12.40
2019-05-01T15:31:52.877Z,12.20
2019-05-01T15:34:21.755Z,12.10
2019-05-01T15:36:50.721Z,11.80
2019-05-01T15:39:27.746Z,11.60
2019-05-01T15:42:04.005Z,11.60
2019-05-01T15:44:34.471Z,11.50
2019-05-01T15:47:05.217Z,11.40
2019-05-01T15:49:34.646Z,11.40
2019-05-01T15:52:05.045Z,11.40
2019-05-01T15:54:33.921Z,11.40
2019-05-01T15:57:02.858Z,11.40
2019-05-01T15:59:31.749Z,11.50
2019-05-01T16:02:00.626Z,11.50
2019-05-01T16:04:29.558Z,11.40
2019-05-01T16:06:58.434Z,11.30
2019-05-01T16:09:27.555Z,11.20
2019-05-01T16:12:13.308Z,11.10
2019-05-01T16:14:44.342Z,11.10
2019-05-01T16:17:13.211Z,11.00
2019-05-01T16:19:42.197Z,11.00
2019-05-01T16:22:12.618Z,11.10
2019-05-01T16:24:41.606Z,11.10
2019-05-01T16:27:10.539Z,11.10
2019-05-01T16:29:39.442Z,11.10
2019-05-01T16:32:08.371Z,11.00
2019-05-01T16:34:37.234Z,11.10
2019-05-01T16:37:06.208Z,11.10
2019-05-01T16:39:39.440Z,11.10
2019-05-01T16:42:08.469Z,11.20
2019-05-01T16:44:37.517Z,11.10
2019-05-01T16:47:06.436Z,11.10
2019-05-01T16:49:35.309Z,11.10
2019-05-01T16:52:04.175Z,11.10
2019-05-01T16:54:33.092Z,11.10
2019-05-01T16:57:02.148Z,11.10
2019-05-01T16:59:31.033Z,11.00
2019-05-01T17:02:01.602Z,11.00
2019-05-01T17:04:41.164Z,11.00
2019-05-01T17:07:39.412Z,11.00
2019-05-01T17:10:10.068Z,11.00
2019-05-01T17:12:55.768Z,11.00
2019-05-01T17:15:26.507Z,11.00
2019-05-01T17:17:55.491Z,11.00
2019-05-01T17:20:26.420Z,11.10
2019-05-01T17:22:57.168Z,11.00
2019-05-01T17:25:29.505Z,10.90
2019-05-01T17:28:02.695Z,10.90
2019-05-01T17:30:44.555Z,10.90
2019-05-01T17:33:20.806Z,10.80
2019-05-01T17:35:51.890Z,10.80
2019-05-01T17:38:24.324Z,10.70
2019-05-01T17:41:07.896Z,10.70
2019-05-01T17:43:44.650Z,10.60
2019-05-01T17:46:13.732Z,10.60
2019-05-01T17:51:47.517Z,10.50
2019-05-01T17:54:18.127Z,10.40
2019-05-01T18:02:49.723Z,10.40
2019-05-01T18:05:20.378Z,10.40
2019-05-01T18:07:49.286Z,10.40
2019-05-01T18:10:18.294Z,10.40
2019-05-01T18:12:47.302Z,10.40
2019-05-01T18:15:16.683Z,10.40
2019-05-01T18:17:45.771Z,10.40
2019-05-01T18:20:14.866Z,10.40
2019-05-01T18:22:52.883Z,10.50
2019-05-01T18:25:23.494Z,10.50
2019-05-01T18:28:09.010Z,10.60
2019-05-01T18:30:39.760Z,10.60
2019-05-01T18:33:08.834Z,10.70
2019-05-01T18:35:37.967Z,10.70
2019-05-01T18:38:17.563Z,10.70
2019-05-01T18:40:48.185Z,10.70
2019-05-01T18:43:17.333Z,10.70
2019-05-01T18:45:51.694Z,10.70
2019-05-01T18:48:21.416Z,10.70
2019-05-01T18:50:55.014Z,10.70
2019-05-01T18:53:22.549Z,10.70
2019-05-01T18:55:53.096Z,10.80
2019-05-01T18:58:22.232Z,10.80
2019-05-01T19:00:51.291Z,10.80
2019-05-01T19:03:22.458Z,10.80
2019-05-01T19:05:51.564Z,10.80
2019-05-01T19:08:20.458Z,10.80
2019-05-01T19:10:49.549Z,10.80
2019-05-01T19:13:18.961Z,10.70
2019-05-01T19:15:47.966Z,10.70
2019-05-01T19:18:16.971Z,10.70
2019-05-01T19:20:58.617Z,10.70
2019-05-01T19:23:16.629Z,10.70
2019-05-01T19:25:45.661Z,10.60
2019-05-01T19:28:14.685Z,10.60
2019-05-01T19:30:43.568Z,10.60
2019-05-01T19:33:12.837Z,10.60
2019-05-01T19:35:44.938Z,10.60
2019-05-01T19:38:14.166Z,10.60
2019-05-01T19:40:43.257Z,10.60
2019-05-01T19:43:13.835Z,10.60
2019-05-01T19:45:42.877Z,10.50
2019-05-01T19:48:11.771Z,10.50
2019-05-01T19:50:47.749Z,10.50
2019-05-01T19:53:14.813Z,10.50
2019-05-01T19:55:44.844Z,10.60
2019-05-01T19:58:14.372Z,10.50
2019-05-01T20:00:54.749Z,10.50
2019-05-01T20:03:24.554Z,10.50
2019-05-01T20:05:54.470Z,10.50
2019-05-01T20:08:23.519Z,10.40
2019-05-01T20:10:52.889Z,10.40
2019-05-01T20:13:21.876Z,10.40
2019-05-01T20:15:50.843Z,10.40
2019-05-01T20:18:19.950Z,10.30
2019-05-01T20:20:48.890Z,10.30
2019-05-01T20:23:17.814Z,10.20
2019-05-01T20:25:51.084Z,10.20
2019-05-01T20:28:22.482Z,10.20
2019-05-01T20:30:57.583Z,10.20
2019-05-01T20:33:26.688Z,10.10
2019-05-01T20:36:00.226Z,10.20
2019-05-01T20:38:27.716Z,10.10
2019-05-01T20:40:56.815Z,10.00
2019-05-01T20:43:27.137Z,10.00
2019-05-01T20:45:56.272Z,10.00
2019-05-01T20:48:25.450Z,9.90
2019-05-01T20:50:56.194Z,9.80
2019-05-01T20:53:25.301Z,9.70
2019-05-01T20:56:01.480Z,9.60
2019-05-01T20:58:30.878Z,9.50
2019-05-01T21:01:02.309Z,9.50
2019-05-01T21:03:31.734Z,9.40
2019-05-01T21:06:18.963Z,9.40
2019-05-01T21:08:56.478Z,9.40
2019-05-01T21:11:27.200Z,9.30
2019-05-01T21:14:14.800Z,9.30
2019-05-01T21:16:32.919Z,9.30
2019-05-01T21:19:00.965Z,9.30
2019-05-01T21:21:40.782Z,9.30
2019-05-01T21:24:11.450Z,9.20
2019-05-01T21:26:40.609Z,9.20
2019-05-01T21:29:18.197Z,9.20
2019-05-01T21:31:58.157Z,9.20
2019-05-01T21:34:38.886Z,9.20
2019-05-01T21:37:13.661Z,9.20
2019-05-01T21:39:46.407Z,9.20
2019-05-01T21:42:18.850Z,9.20
2019-05-01T21:44:56.207Z,9.20
2019-05-01T21:47:23.683Z,9.20
2019-05-01T21:49:54.698Z,9.20
2019-05-01T21:52:27.253Z,9.20
2019-05-01T21:54:59.496Z,9.10
2019-05-01T21:57:38.699Z,9.10
2019-05-01T22:00:11.141Z,9.10
2019-05-01T22:02:46.456Z,9.10
2019-05-01T22:05:25.123Z,9.10
2019-05-01T22:07:58.673Z,9.10
2019-05-01T22:10:35.343Z,9.10
2019-05-01T22:13:07.801Z,9.10
2019-05-01T22:15:51.456Z,9.10
2019-05-01T22:18:34.391Z,9.10
2019-05-01T22:21:07.281Z,9.10
2019-05-01T22:23:55.582Z,9.10
2019-05-01T22:26:42.082Z,9.10
2019-05-01T22:29:18.944Z,9.10
2019-05-01T22:32:09.055Z,9.10
2019-05-01T22:35:16.916Z,9.20
2019-05-01T22:37:46.202Z,9.20
2019-05-01T22:40:30.251Z,9.20
2019-05-01T22:42:59.153Z,9.20
2019-05-01T22:45:29.735Z,9.20
2019-05-01T22:47:58.629Z,9.10
2019-05-01T22:50:27.587Z,9.10
2019-05-01T22:52:56.509Z,9.10
2019-05-01T22:55:26.637Z,9.10
2019-05-01T22:57:55.950Z,9.10
2019-05-01T23:00:28.545Z,9.10
2019-05-01T23:03:00.093Z,9.10
2019-05-01T23:05:29.652Z,9.10
2019-05-01T23:08:00.223Z,9.10
2019-05-01T23:10:29.478Z,9.10
2019-05-01T23:13:01.160Z,9.10
2019-05-01T23:15:31.758Z,9.10
2019-05-01T23:18:00.723Z,9.00
2019-05-01T23:20:29.649Z,9.00
2019-05-01T23:22:58.570Z,9.00
2019-05-01T23:25:27.522Z,9.00
2019-05-01T23:27:59.611Z,9.00
2019-05-01T23:30:27.000Z,9.00
2019-05-01T23:32:58.583Z,9.00
2019-05-01T23:35:27.553Z,9.00
2019-05-01T23:37:56.470Z,9.00
2019-05-01T23:40:25.438Z,9.00
2019-05-01T23:42:54.396Z,9.00
2019-05-01T23:45:23.296Z,9.00
2019-05-01T23:47:53.718Z,8.90
2019-05-01T23:50:22.596Z,8.90
2019-05-01T23:52:51.505Z,9.00
2019-05-01T23:55:21.774Z,9.00
2019-05-01T23:57:50.646Z,9.00
